»·PEaware :: N698J KINW-KPHX

N698J :: KINW-KPHX

FLIGHT INFORMATION

Flight Status: Arrived
Operator: Privately registered:
United States
More flights under this callsign
Pilot: Ahmad S. (5672)
Aircraft: BEECH AIRCRAFT BARON
(BE58)
More flights by this aircraft type
Origin: KINW Winslow-Lindbergh Regl
United States
Destination: KPHX Phoenix Sky Harbor Intl
United States
More flights between these airports :: More routes between these airports
Route: INW V95 PXR
File this flight plan on PilotEdge
Remarks:
Altitude:
(Current/Filed)
10,000ft
Speed:
(Current/Filed)
175kts
Departed: 12-Dec-20 10:53 AM
Arrived: 12-Dec-20 11:42 AM
Distance/Time
Traveled:
115nm/0:48
Distance/Time
To Go:
Arrived

Flight Plot

Page will automatically refresh every two minutes.

Flight plan parsing failed; only flown route is shown


Map Options




Map Legend


Flown Route
Filed Route
Departure Airport
Arrival Airport
Navaid (VOR, NDB)
Fix

Horizontal Profiles

Position Reports

Time Latitude Longitude Heading Altitude Ground
Speed
12-Dec-20 09:32 35.022397 -110.716526 86 4882ft 0kts
12-Dec-20 09:33 35.022397 -110.716526 86 4882ft 0kts
12-Dec-20 09:34 35.022397 -110.716526 86 4882ft 0kts
12-Dec-20 09:35 35.022397 -110.716526 86 4882ft 0kts
12-Dec-20 09:36 35.022397 -110.716526 86 4882ft 0kts
12-Dec-20 09:37 35.022397 -110.716526 86 4882ft 0kts
12-Dec-20 09:38 35.022397 -110.716526 86 4882ft 0kts
12-Dec-20 09:39 35.022397 -110.716526 86 4882ft 0kts
12-Dec-20 09:40 35.022397 -110.716526 86 4882ft 0kts
12-Dec-20 09:41 35.022397 -110.716526 86 4882ft 0kts
12-Dec-20 09:42 35.022397 -110.716526 86 4882ft 0kts
12-Dec-20 09:43 35.022397 -110.716526 86 4882ft 0kts
12-Dec-20 09:44 35.022397 -110.716526 86 4882ft 0kts
12-Dec-20 09:45 35.022397 -110.716526 86 4882ft 0kts
12-Dec-20 09:46 35.022397 -110.716526 86 4882ft 0kts
12-Dec-20 09:47 35.022397 -110.716526 86 4882ft 0kts
12-Dec-20 09:48 35.022397 -110.716526 86 4882ft 0kts
12-Dec-20 09:49 35.022397 -110.716526 86 4882ft 0kts
12-Dec-20 09:50 35.022397 -110.716526 86 4882ft 0kts
12-Dec-20 09:51 35.022397 -110.716526 86 4882ft 0kts
12-Dec-20 09:52 35.022397 -110.716526 86 4882ft 0kts
12-Dec-20 09:53 35.022397 -110.716526 86 4882ft 0kts
12-Dec-20 09:54 35.022397 -110.716526 86 4882ft 0kts
12-Dec-20 09:55 35.022397 -110.716526 86 4882ft 0kts
12-Dec-20 09:56 35.022397 -110.716526 86 4882ft 0kts
12-Dec-20 09:57 35.022397 -110.716526 86 4882ft 0kts
12-Dec-20 09:59 35.022397 -110.716526 86 4882ft 0kts
12-Dec-20 10:00 35.022397 -110.716526 86 4882ft 0kts
12-Dec-20 10:01 35.022397 -110.716526 86 4882ft 0kts
12-Dec-20 10:02 35.022397 -110.716526 86 4882ft 0kts
12-Dec-20 10:03 35.022397 -110.716526 86 4882ft 0kts
12-Dec-20 10:04 35.022397 -110.716526 86 4882ft 0kts
12-Dec-20 10:05 35.022397 -110.716526 86 4882ft 0kts
12-Dec-20 10:06 35.022397 -110.716526 86 4882ft 0kts
12-Dec-20 10:07 35.022397 -110.716526 86 4882ft 0kts
12-Dec-20 10:08 35.022397 -110.716526 86 4882ft 0kts
12-Dec-20 10:09 35.022397 -110.716526 86 4882ft 0kts
12-Dec-20 10:10 35.022397 -110.716526 86 4882ft 0kts
12-Dec-20 10:11 35.022397 -110.716526 86 4882ft 0kts
12-Dec-20 10:12 35.022397 -110.716526 86 4882ft 0kts
12-Dec-20 10:13 35.022397 -110.716526 86 4882ft 0kts
12-Dec-20 10:14 35.022397 -110.716526 86 4882ft 0kts
12-Dec-20 10:15 35.022397 -110.716526 86 4882ft 0kts
12-Dec-20 10:16 35.022397 -110.716526 86 4882ft 0kts
12-Dec-20 10:17 35.022397 -110.716526 86 4882ft 0kts
12-Dec-20 10:17 35.022397 -110.716526 86 4882ft 0kts
12-Dec-20 10:19 35.022397 -110.716526 86 4882ft 0kts
12-Dec-20 10:19 35.022397 -110.716526 86 4882ft 0kts
12-Dec-20 10:20 35.022397 -110.716526 86 4882ft 0kts
12-Dec-20 10:21 35.022397 -110.716526 86 4882ft 0kts
12-Dec-20 10:22 35.022397 -110.716526 86 4882ft 0kts
12-Dec-20 10:23 35.022397 -110.716526 86 4882ft 0kts
12-Dec-20 10:24 35.022397 -110.716526 86 4882ft 0kts
12-Dec-20 10:25 35.022397 -110.716526 86 4882ft 0kts
12-Dec-20 10:26 35.022397 -110.716526 86 4882ft 0kts
12-Dec-20 10:27 35.022397 -110.716526 86 4882ft 0kts
12-Dec-20 10:28 35.022397 -110.716526 86 4882ft 0kts
12-Dec-20 10:29 35.022397 -110.716526 86 4882ft 0kts
12-Dec-20 10:30 35.022397 -110.716526 86 4882ft 0kts
12-Dec-20 10:31 35.022397 -110.716526 86 4882ft 0kts
12-Dec-20 10:32 35.022397 -110.716526 86 4882ft 0kts
12-Dec-20 10:33 35.022397 -110.716526 86 4882ft 0kts
12-Dec-20 10:34 35.022397 -110.716526 86 4882ft 0kts
12-Dec-20 10:35 35.022397 -110.716526 86 4882ft 0kts
12-Dec-20 10:36 35.022397 -110.716526 86 4882ft 0kts
12-Dec-20 10:37 35.022397 -110.716526 86 4882ft 0kts
12-Dec-20 10:38 35.022397 -110.716526 86 4882ft 0kts
12-Dec-20 10:39 35.022397 -110.716526 86 4882ft 0kts
12-Dec-20 10:40 35.022397 -110.716526 86 4882ft 0kts
12-Dec-20 10:41 35.022397 -110.716526 86 4882ft 0kts
12-Dec-20 10:42 35.022397 -110.716526 86 4882ft 0kts
12-Dec-20 10:43 35.022397 -110.716526 86 4882ft 0kts
12-Dec-20 10:44 35.022397 -110.716526 86 4882ft 0kts
12-Dec-20 10:45 35.022626 -110.716457 349 4882ft 0kts
12-Dec-20 10:46 35.022263 -110.719870 239 4878ft 26kts
12-Dec-20 10:47 35.019354 -110.725662 238 4898ft 20kts
12-Dec-20 10:48 35.016272 -110.731780 239 4921ft 21kts
12-Dec-20 10:49 35.013892 -110.737533 319 4942ft 12kts
12-Dec-20 10:50 35.013932 -110.737569 330 4942ft 0kts
12-Dec-20 10:51 35.013932 -110.737569 330 4942ft 0kts
12-Dec-20 10:53 35.018373 -110.729720 59 4987ft 105kts
12-Dec-20 10:53 35.040452 -110.713606 324 5874ft 160kts
12-Dec-20 10:54 35.049345 -110.762335 272 7554ft 150kts
12-Dec-20 10:55 35.050764 -110.809911 223 8921ft 149kts
12-Dec-20 10:56 35.012881 -110.834488 207 9888ft 165kts
12-Dec-20 10:57 34.969997 -110.861690 212 9983ft 177kts
12-Dec-20 10:58 34.928114 -110.894105 213 9988ft 178kts
12-Dec-20 10:59 34.885102 -110.924507 212 9988ft 178kts
12-Dec-20 11:00 34.842942 -110.956287 213 9994ft 179kts
12-Dec-20 11:01 34.799847 -110.987379 211 9989ft 180kts
12-Dec-20 11:02 34.756980 -111.019022 213 9989ft 180kts
12-Dec-20 11:03 34.714163 -111.050301 211 9990ft 179kts
12-Dec-20 11:04 34.671277 -111.081535 212 9989ft 179kts
12-Dec-20 11:05 34.628861 -111.112676 211 10053ft 178kts
12-Dec-20 11:06 34.585914 -111.143720 212 10066ft 178kts
12-Dec-20 11:07 34.543877 -111.174580 211 10071ft 177kts
12-Dec-20 11:08 34.500972 -111.205527 211 10068ft 180kts
12-Dec-20 11:09 34.457921 -111.237017 211 10069ft 180kts
12-Dec-20 11:10 34.414225 -111.268511 211 10068ft 183kts
12-Dec-20 11:11 34.370783 -111.300150 211 10061ft 182kts
12-Dec-20 11:12 34.327190 -111.331558 210 10072ft 183kts
12-Dec-20 11:13 34.283375 -111.363295 210 10068ft 183kts
12-Dec-20 11:14 34.239750 -111.394764 210 10067ft 183kts
12-Dec-20 11:15 34.195794 -111.426435 210 10068ft 183kts
12-Dec-20 11:16 34.151954 -111.458028 210 10059ft 182kts
12-Dec-20 11:17 34.108541 -111.489199 210 10082ft 184kts
12-Dec-20 11:18 34.064315 -111.521017 210 10060ft 184kts
12-Dec-20 11:19 34.020111 -111.552689 210 10068ft 184kts
12-Dec-20 11:20 33.975721 -111.584499 210 9985ft 186kts
12-Dec-20 11:21 33.931183 -111.616481 211 9957ft 185kts
12-Dec-20 11:22 33.887337 -111.648143 211 10015ft 182kts
12-Dec-20 11:23 33.843934 -111.679561 211 10040ft 182kts
12-Dec-20 11:24 33.800433 -111.711046 212 10038ft 182kts
12-Dec-20 11:25 33.757218 -111.742364 212 10038ft 180kts
12-Dec-20 11:26 33.714477 -111.773331 213 10039ft 178kts
12-Dec-20 11:27 33.672066 -111.804019 213 10034ft 177kts
12-Dec-20 11:28 33.629478 -111.834843 214 10049ft 181kts
12-Dec-20 11:29 33.593110 -111.873358 243 9769ft 165kts
12-Dec-20 11:30 33.580448 -111.915416 250 8755ft 123kts
12-Dec-20 11:31 33.571048 -111.955149 251 7762ft 125kts
12-Dec-20 11:32 33.561551 -111.996114 251 6755ft 128kts
12-Dec-20 11:33 33.551752 -112.037939 251 5772ft 132kts
12-Dec-20 11:34 33.539402 -112.079559 227 4768ft 132kts
12-Dec-20 11:35 33.512325 -112.105617 212 3805ft 129kts
12-Dec-20 11:36 33.478935 -112.121890 194 2812ft 133kts
12-Dec-20 11:37 33.441635 -112.125474 161 2510ft 135kts
12-Dec-20 11:38 33.423477 -112.093340 53 2400ft 140kts
12-Dec-20 11:39 33.431319 -112.062393 93 1573ft 86kts
12-Dec-20 11:40 33.430969 -112.033470 88 1296ft 85kts
12-Dec-20 11:41 33.432010 -112.015715 354 1119ft 0kts
12-Dec-20 11:42 33.432010 -112.015715 354 1119ft 0kts
12-Dec-20 11:43 33.432139 -112.015629 59 1119ft 5kts
12-Dec-20 11:44 33.432894 -112.018077 271 1118ft 19kts
12-Dec-20 11:45 33.434301 -112.019690 127 1119ft 6kts
12-Dec-20 11:46 33.433548 -112.019879 178 1120ft 0kts
12-Dec-20 11:47 33.433548 -112.019879 178 1120ft 0kts
12-Dec-20 11:48 33.433548 -112.019879 178 1120ft 0kts
12-Dec-20 11:49 33.433548 -112.019879 178 1120ft 0kts

Navigation Log

Ident Type
Flight plan parsing failed, navigation log unavailable